sensor_id;sensor_type;location;lat;lon;timestamp;temperature;humidity
30063;DHT22;16889;67.864;24.990;2022-12-29T00:01:54;-10.30;99.90
30063;DHT22;16889;67.864;24.990;2022-12-29T00:06:42;-10.30;99.90
30063;DHT22;16889;67.864;24.990;2022-12-29T00:11:28;-10.10;99.90
30063;DHT22;16889;67.864;24.990;2022-12-29T00:16:14;-10.10;99.90
30063;DHT22;16889;67.864;24.990;2022-12-29T00:21:00;-10.00;99.90
30063;DHT22;16889;67.864;24.990;2022-12-29T00:26:15;-10.00;99.90
30063;DHT22;16889;67.864;24.990;2022-12-29T00:31:20;-9.90;99.90
30063;DHT22;16889;67.864;24.990;2022-12-29T00:41:17;-9.80;99.90
30063;DHT22;16889;67.864;24.990;2022-12-29T00:46:21;-9.80;99.90
30063;DHT22;16889;67.864;24.990;2022-12-29T00:51:08;-9.90;99.90
30063;DHT22;16889;67.864;24.990;2022-12-29T00:55:53;-9.90;99.90
30063;DHT22;16889;67.864;24.990;2022-12-29T01:00:39;-10.00;99.90
30063;DHT22;16889;67.864;24.990;2022-12-29T01:05:25;-10.00;99.90
30063;DHT22;16889;67.864;24.990;2022-12-29T01:10:11;-10.00;99.90
30063;DHT22;16889;67.864;24.990;2022-12-29T01:14:57;-10.10;99.90
30063;DHT22;16889;67.864;24.990;2022-12-29T01:19:43;-10.10;99.90
30063;DHT22;16889;67.864;24.990;2022-12-29T01:24:29;-10.00;99.90
30063;DHT22;16889;67.864;24.990;2022-12-29T01:29:15;-10.00;99.90
30063;DHT22;16889;67.864;24.990;2022-12-29T01:34:01;-10.10;99.90
30063;DHT22;16889;67.864;24.990;2022-12-29T01:38:47;-10.00;99.90
30063;DHT22;16889;67.864;24.990;2022-12-29T01:48:36;-10.00;99.90
30063;DHT22;16889;67.864;24.990;2022-12-29T01:53:27;-10.00;99.90
30063;DHT22;16889;67.864;24.990;2022-12-29T01:58:16;-10.10;99.90
30063;DHT22;16889;67.864;24.990;2022-12-29T02:03:04;-10.10;99.90
30063;DHT22;16889;67.864;24.990;2022-12-29T02:07:52;-10.00;99.90
30063;DHT22;16889;67.864;24.990;2022-12-29T02:12:38;-9.90;99.90
30063;DHT22;16889;67.864;24.990;2022-12-29T02:28:52;-10.30;99.90
30063;DHT22;16889;67.864;24.990;2022-12-29T02:43:53;-10.70;99.90
30063;DHT22;16889;67.864;24.990;2022-12-29T02:53:32;-10.70;99.90
30063;DHT22;16889;67.864;24.990;2022-12-29T02:58:37;-10.70;99.90
30063;DHT22;16889;67.864;24.990;2022-12-29T03:09:30;-10.70;99.90
30063;DHT22;16889;67.864;24.990;2022-12-29T03:14:27;-10.60;99.90
30063;DHT22;16889;67.864;24.990;2022-12-29T03:19:40;-10.60;99.90
30063;DHT22;16889;67.864;24.990;2022-12-29T03:24:34;-10.60;99.90
30063;DHT22;16889;67.864;24.990;2022-12-29T03:29:21;-10.60;99.90
30063;DHT22;16889;67.864;24.990;2022-12-29T03:34:08;-10.70;99.90
30063;DHT22;16889;67.864;24.990;2022-12-29T03:39:06;-10.80;99.90
30063;DHT22;16889;67.864;24.990;2022-12-29T03:43:54;-10.80;99.90
30063;DHT22;16889;67.864;24.990;2022-12-29T03:48:40;-10.80;99.90
30063;DHT22;16889;67.864;24.990;2022-12-29T03:53:26;-10.80;99.90
30063;DHT22;16889;67.864;24.990;2022-12-29T03:58:12;-10.80;99.90
30063;DHT22;16889;67.864;24.990;2022-12-29T04:02:58;-10.80;99.90
30063;DHT22;16889;67.864;24.990;2022-12-29T04:07:43;-10.70;99.90
30063;DHT22;16889;67.864;24.990;2022-12-29T04:12:29;-10.90;99.90
30063;DHT22;16889;67.864;24.990;2022-12-29T04:17:15;-11.00;99.90
30063;DHT22;16889;67.864;24.990;2022-12-29T04:22:01;-11.00;99.90
30063;DHT22;16889;67.864;24.990;2022-12-29T04:26:47;-10.90;99.90
30063;DHT22;16889;67.864;24.990;2022-12-29T04:31:33;-10.80;99.90
30063;DHT22;16889;67.864;24.990;2022-12-29T04:36:19;-10.80;99.90
30063;DHT22;16889;67.864;24.990;2022-12-29T04:41:05;-10.80;99.90
30063;DHT22;16889;67.864;24.990;2022-12-29T04:45:51;-10.90;99.90
30063;DHT22;16889;67.864;24.990;2022-12-29T04:50:38;-11.00;99.90
30063;DHT22;16889;67.864;24.990;2022-12-29T04:55:23;-10.80;99.90
30063;DHT22;16889;67.864;24.990;2022-12-29T05:00:10;-10.80;99.90
30063;DHT22;16889;67.864;24.990;2022-12-29T05:04:56;-10.70;99.90
30063;DHT22;16889;67.864;24.990;2022-12-29T05:09:42;-10.60;99.90
30063;DHT22;16889;67.864;24.990;2022-12-29T05:14:28;-10.80;99.90
30063;DHT22;16889;67.864;24.990;2022-12-29T05:19:14;-10.60;99.90
30063;DHT22;16889;67.864;24.990;2022-12-29T05:23:59;-10.80;99.90
30063;DHT22;16889;67.864;24.990;2022-12-29T05:28:46;-10.80;99.90
30063;DHT22;16889;67.864;24.990;2022-12-29T05:33:31;-10.70;99.90
30063;DHT22;16889;67.864;24.990;2022-12-29T05:38:17;-10.60;99.90
30063;DHT22;16889;67.864;24.990;2022-12-29T05:43:03;-10.40;99.90
30063;DHT22;16889;67.864;24.990;2022-12-29T05:47:49;-10.30;99.90
30063;DHT22;16889;67.864;24.990;2022-12-29T05:52:35;-10.30;99.90
30063;DHT22;16889;67.864;24.990;2022-12-29T05:57:21;-10.20;99.90
30063;DHT22;16889;67.864;24.990;2022-12-29T06:02:07;-10.10;99.90
30063;DHT22;16889;67.864;24.990;2022-12-29T06:06:53;-10.10;99.90
30063;DHT22;16889;67.864;24.990;2022-12-29T06:11:39;-10.00;99.90
30063;DHT22;16889;67.864;24.990;2022-12-29T06:16:25;-9.90;99.90
30063;DHT22;16889;67.864;24.990;2022-12-29T06:21:11;-9.80;99.90
30063;DHT22;16889;67.864;24.990;2022-12-29T06:25:57;-9.80;99.90
30063;DHT22;16889;67.864;24.990;2022-12-29T06:30:46;-9.70;99.90
30063;DHT22;16889;67.864;24.990;2022-12-29T06:35:32;-9.60;99.90
30063;DHT22;16889;67.864;24.990;2022-12-29T06:40:18;-9.60;99.90
30063;DHT22;16889;67.864;24.990;2022-12-29T06:45:04;-9.60;99.90
30063;DHT22;16889;67.864;24.990;2022-12-29T06:49:50;-9.50;99.90
30063;DHT22;16889;67.864;24.990;2022-12-29T06:54:36;-9.50;99.90
30063;DHT22;16889;67.864;24.990;2022-12-29T06:59:22;-9.40;99.90
30063;DHT22;16889;67.864;24.990;2022-12-29T07:04:08;-9.40;99.90
30063;DHT22;16889;67.864;24.990;2022-12-29T07:08:54;-9.30;99.90
30063;DHT22;16889;67.864;24.990;2022-12-29T07:13:40;-9.20;99.90
30063;DHT22;16889;67.864;24.990;2022-12-29T07:18:26;-9.20;99.90
30063;DHT22;16889;67.864;24.990;2022-12-29T07:23:12;-9.10;99.90
30063;DHT22;16889;67.864;24.990;2022-12-29T07:27:58;-9.10;99.90
30063;DHT22;16889;67.864;24.990;2022-12-29T07:32:44;-9.20;99.90
30063;DHT22;16889;67.864;24.990;2022-12-29T07:37:30;-9.00;99.90
30063;DHT22;16889;67.864;24.990;2022-12-29T07:42:16;-9.00;99.90
30063;DHT22;16889;67.864;24.990;2022-12-29T07:47:02;-8.90;99.90
30063;DHT22;16889;67.864;24.990;2022-12-29T07:51:48;-8.90;99.90
30063;DHT22;16889;67.864;24.990;2022-12-29T07:56:34;-8.70;99.90
30063;DHT22;16889;67.864;24.990;2022-12-29T08:01:20;-8.80;99.90
30063;DHT22;16889;67.864;24.990;2022-12-29T08:06:11;-8.70;99.90
30063;DHT22;16889;67.864;24.990;2022-12-29T08:10:58;-8.70;99.90
30063;DHT22;16889;67.864;24.990;2022-12-29T08:15:43;-8.60;99.90
30063;DHT22;16889;67.864;24.990;2022-12-29T08:20:29;-8.60;99.90
30063;DHT22;16889;67.864;24.990;2022-12-29T08:25:16;-8.60;99.90
30063;DHT22;16889;67.864;24.990;2022-12-29T08:30:03;-8.60;99.90
30063;DHT22;16889;67.864;24.990;2022-12-29T08:34:49;-8.60;99.90
30063;DHT22;16889;67.864;24.990;2022-12-29T08:39:35;-8.50;99.90
30063;DHT22;16889;67.864;24.990;2022-12-29T08:44:22;-8.50;99.90
30063;DHT22;16889;67.864;24.990;2022-12-29T08:49:08;-8.50;99.90
30063;DHT22;16889;67.864;24.990;2022-12-29T08:53:54;-8.40;99.90
30063;DHT22;16889;67.864;24.990;2022-12-29T08:58:40;-8.40;99.90
30063;DHT22;16889;67.864;24.990;2022-12-29T09:03:26;-8.40;99.90
30063;DHT22;16889;67.864;24.990;2022-12-29T09:08:12;-8.40;99.90
30063;DHT22;16889;67.864;24.990;2022-12-29T09:12:58;-8.50;99.90
30063;DHT22;16889;67.864;24.990;2022-12-29T09:17:44;-8.30;99.90
30063;DHT22;16889;67.864;24.990;2022-12-29T09:22:31;-8.30;99.90
30063;DHT22;16889;67.864;24.990;2022-12-29T09:27:17;-8.10;99.90
30063;DHT22;16889;67.864;24.990;2022-12-29T09:32:03;-8.00;99.90
30063;DHT22;16889;67.864;24.990;2022-12-29T09:36:49;-8.00;99.90
30063;DHT22;16889;67.864;24.990;2022-12-29T09:41:43;-8.00;99.90
30063;DHT22;16889;67.864;24.990;2022-12-29T09:46:38;-8.00;99.90
30063;DHT22;16889;67.864;24.990;2022-12-29T09:51:25;-8.00;99.90
30063;DHT22;16889;67.864;24.990;2022-12-29T09:56:19;-8.00;99.90
30063;DHT22;16889;67.864;24.990;2022-12-29T10:01:21;-8.00;99.90
30063;DHT22;16889;67.864;24.990;2022-12-29T10:16:56;-7.80;99.90
30063;DHT22;16889;67.864;24.990;2022-12-29T10:21:56;-7.80;99.90
30063;DHT22;16889;67.864;24.990;2022-12-29T10:26:46;-7.80;99.90
30063;DHT22;16889;67.864;24.990;2022-12-29T10:31:58;-7.80;99.90
30063;DHT22;16889;67.864;24.990;2022-12-29T10:36:48;-7.80;99.90
30063;DHT22;16889;67.864;24.990;2022-12-29T10:42:14;-7.80;99.90
30063;DHT22;16889;67.864;24.990;2022-12-29T10:47:05;-7.60;99.90
30063;DHT22;16889;67.864;24.990;2022-12-29T10:51:57;-7.40;99.90
30063;DHT22;16889;67.864;24.990;2022-12-29T10:56:50;-7.30;99.90
30063;DHT22;16889;67.864;24.990;2022-12-29T11:01:44;-7.40;99.90
30063;DHT22;16889;67.864;24.990;2022-12-29T11:06:32;-7.40;99.90
30063;DHT22;16889;67.864;24.990;2022-12-29T11:11:38;-7.30;99.90
30063;DHT22;16889;67.864;24.990;2022-12-29T11:16:29;-7.20;99.90
30063;DHT22;16889;67.864;24.990;2022-12-29T11:21:35;-7.10;99.90
30063;DHT22;16889;67.864;24.990;2022-12-29T11:26:27;-7.20;99.90
30063;DHT22;16889;67.864;24.990;2022-12-29T11:31:17;-7.30;99.90
30063;DHT22;16889;67.864;24.990;2022-12-29T11:36:05;-7.30;99.90
30063;DHT22;16889;67.864;24.990;2022-12-29T11:40:52;-7.20;99.90
30063;DHT22;16889;67.864;24.990;2022-12-29T11:45:45;-7.10;99.90
30063;DHT22;16889;67.864;24.990;2022-12-29T11:50:35;-7.10;99.90
30063;DHT22;16889;67.864;24.990;2022-12-29T11:55:25;-7.20;99.90
30063;DHT22;16889;67.864;24.990;2022-12-29T12:00:17;-7.10;99.90
30063;DHT22;16889;67.864;24.990;2022-12-29T12:05:20;-7.10;99.90
30063;DHT22;16889;67.864;24.990;2022-12-29T12:10:14;-7.00;99.90
30063;DHT22;16889;67.864;24.990;2022-12-29T12:15:03;-7.10;99.90
30063;DHT22;16889;67.864;24.990;2022-12-29T12:19:56;-7.10;99.90
30063;DHT22;16889;67.864;24.990;2022-12-29T12:34:45;-6.90;99.90
30063;DHT22;16889;67.864;24.990;2022-12-29T12:54:35;-6.50;99.90
30063;DHT22;16889;67.864;24.990;2022-12-29T13:09:52;-6.50;99.90
30063;DHT22;16889;67.864;24.990;2022-12-29T13:30:18;-6.00;99.90
30063;DHT22;16889;67.864;24.990;2022-12-29T13:35:27;-6.10;99.90
30063;DHT22;16889;67.864;24.990;2022-12-29T13:40:21;-6.20;99.90
30063;DHT22;16889;67.864;24.990;2022-12-29T13:45:18;-6.20;99.90
30063;DHT22;16889;67.864;24.990;2022-12-29T13:50:17;-6.20;99.90
30063;DHT22;16889;67.864;24.990;2022-12-29T13:55:25;-6.10;99.90
30063;DHT22;16889;67.864;24.990;2022-12-29T14:00:16;-6.20;99.90
30063;DHT22;16889;67.864;24.990;2022-12-29T14:05:27;-6.10;99.90
30063;DHT22;16889;67.864;24.990;2022-12-29T14:15:44;-6.20;99.90
30063;DHT22;16889;67.864;24.990;2022-12-29T14:20:32;-6.10;99.90
30063;DHT22;16889;67.864;24.990;2022-12-29T14:30:48;-6.10;99.90
30063;DHT22;16889;67.864;24.990;2022-12-29T14:35:40;-6.00;99.90
30063;DHT22;16889;67.864;24.990;2022-12-29T14:40:27;-5.90;99.90
30063;DHT22;16889;67.864;24.990;2022-12-29T14:59:55;-5.70;99.90
30063;DHT22;16889;67.864;24.990;2022-12-29T15:04:43;-5.70;99.90
30063;DHT22;16889;67.864;24.990;2022-12-29T15:09:36;-5.60;99.90
30063;DHT22;16889;67.864;24.990;2022-12-29T15:14:36;-5.50;99.90
30063;DHT22;16889;67.864;24.990;2022-12-29T15:19:24;-5.60;99.90
30063;DHT22;16889;67.864;24.990;2022-12-29T15:24:11;-5.60;99.90
30063;DHT22;16889;67.864;24.990;2022-12-29T15:28:57;-5.50;99.90
30063;DHT22;16889;67.864;24.990;2022-12-29T15:33:47;-5.40;99.90
30063;DHT22;16889;67.864;24.990;2022-12-29T15:38:33;-5.40;99.90
30063;DHT22;16889;67.864;24.990;2022-12-29T15:48:20;-5.40;99.90
30063;DHT22;16889;67.864;24.990;2022-12-29T15:53:12;-5.40;99.90
30063;DHT22;16889;67.864;24.990;2022-12-29T15:58:00;-5.40;99.90
30063;DHT22;16889;67.864;24.990;2022-12-29T16:02:46;-5.40;99.90
30063;DHT22;16889;67.864;24.990;2022-12-29T16:07:32;-5.30;99.90
30063;DHT22;16889;67.864;24.990;2022-12-29T16:12:24;-5.30;99.90
30063;DHT22;16889;67.864;24.990;2022-12-29T16:17:17;-5.40;99.90
30063;DHT22;16889;67.864;24.990;2022-12-29T16:22:17;-5.40;99.90
30063;DHT22;16889;67.864;24.990;2022-12-29T16:32:27;-5.30;99.90
30063;DHT22;16889;67.864;24.990;2022-12-29T16:37:31;-5.30;99.90
30063;DHT22;16889;67.864;24.990;2022-12-29T16:42:45;-5.30;99.90
30063;DHT22;16889;67.864;24.990;2022-12-29T16:47:32;-5.30;99.90
30063;DHT22;16889;67.864;24.990;2022-12-29T16:52:33;-5.30;99.90
30063;DHT22;16889;67.864;24.990;2022-12-29T16:57:28;-5.30;99.90
30063;DHT22;16889;67.864;24.990;2022-12-29T17:02:16;-5.30;99.90
30063;DHT22;16889;67.864;24.990;2022-12-29T17:07:18;-5.40;99.90
30063;DHT22;16889;67.864;24.990;2022-12-29T17:12:05;-5.30;99.90
30063;DHT22;16889;67.864;24.990;2022-12-29T17:16:53;-5.40;99.90
30063;DHT22;16889;67.864;24.990;2022-12-29T17:21:39;-5.50;99.90
30063;DHT22;16889;67.864;24.990;2022-12-29T17:26:25;-5.60;99.90
30063;DHT22;16889;67.864;24.990;2022-12-29T17:31:12;-5.60;99.90
30063;DHT22;16889;67.864;24.990;2022-12-29T17:35:58;-5.60;99.90
30063;DHT22;16889;67.864;24.990;2022-12-29T17:40:44;-5.70;99.90
30063;DHT22;16889;67.864;24.990;2022-12-29T17:45:31;-5.70;99.90
30063;DHT22;16889;67.864;24.990;2022-12-29T17:50:20;-5.60;99.90
30063;DHT22;16889;67.864;24.990;2022-12-29T17:55:17;-5.60;99.90
30063;DHT22;16889;67.864;24.990;2022-12-29T18:00:03;-5.70;99.90
30063;DHT22;16889;67.864;24.990;2022-12-29T18:04:51;-5.60;99.90
30063;DHT22;16889;67.864;24.990;2022-12-29T18:09:38;-5.50;99.90
30063;DHT22;16889;67.864;24.990;2022-12-29T18:14:24;-5.70;99.90
30063;DHT22;16889;67.864;24.990;2022-12-29T18:19:11;-5.50;99.90
30063;DHT22;16889;67.864;24.990;2022-12-29T18:23:57;-5.60;99.90
30063;DHT22;16889;67.864;24.990;2022-12-29T18:28:43;-5.70;99.90
30063;DHT22;16889;67.864;24.990;2022-12-29T18:33:31;-5.70;99.90
30063;DHT22;16889;67.864;24.990;2022-12-29T18:38:17;-5.70;99.90
30063;DHT22;16889;67.864;24.990;2022-12-29T18:43:03;-5.70;99.90
30063;DHT22;16889;67.864;24.990;2022-12-29T18:47:50;-5.90;99.90
30063;DHT22;16889;67.864;24.990;2022-12-29T18:52:36;-5.90;99.90
30063;DHT22;16889;67.864;24.990;2022-12-29T18:57:22;-5.90;99.90
30063;DHT22;16889;67.864;24.990;2022-12-29T19:02:15;-5.90;99.90
30063;DHT22;16889;67.864;24.990;2022-12-29T19:07:02;-5.90;99.90
30063;DHT22;16889;67.864;24.990;2022-12-29T19:11:48;-6.10;99.90
30063;DHT22;16889;67.864;24.990;2022-12-29T19:16:33;-6.20;99.90
30063;DHT22;16889;67.864;24.990;2022-12-29T19:21:20;-6.20;99.90
30063;DHT22;16889;67.864;24.990;2022-12-29T19:26:09;-6.30;99.90
30063;DHT22;16889;67.864;24.990;2022-12-29T19:31:02;-6.20;99.90
30063;DHT22;16889;67.864;24.990;2022-12-29T19:35:49;-6.20;99.90
30063;DHT22;16889;67.864;24.990;2022-12-29T19:40:36;-6.30;99.90
30063;DHT22;16889;67.864;24.990;2022-12-29T19:45:22;-6.30;99.90
30063;DHT22;16889;67.864;24.990;2022-12-29T19:50:11;-6.10;99.90
30063;DHT22;16889;67.864;24.990;2022-12-29T19:54:57;-6.00;99.90
30063;DHT22;16889;67.864;24.990;2022-12-29T19:59:44;-6.20;99.90
30063;DHT22;16889;67.864;24.990;2022-12-29T20:04:30;-6.20;99.90
30063;DHT22;16889;67.864;24.990;2022-12-29T20:09:16;-6.20;99.90
30063;DHT22;16889;67.864;24.990;2022-12-29T20:14:02;-6.30;99.90
30063;DHT22;16889;67.864;24.990;2022-12-29T20:18:48;-6.20;99.90
30063;DHT22;16889;67.864;24.990;2022-12-29T20:23:38;-6.20;99.90
30063;DHT22;16889;67.864;24.990;2022-12-29T20:28:25;-6.20;99.90
30063;DHT22;16889;67.864;24.990;2022-12-29T20:33:14;-6.40;99.90
30063;DHT22;16889;67.864;24.990;2022-12-29T20:38:00;-6.30;99.90
30063;DHT22;16889;67.864;24.990;2022-12-29T20:42:46;-6.30;99.90
30063;DHT22;16889;67.864;24.990;2022-12-29T20:47:32;-6.40;99.90
30063;DHT22;16889;67.864;24.990;2022-12-29T20:52:18;-6.30;99.90
30063;DHT22;16889;67.864;24.990;2022-12-29T20:57:04;-6.40;99.90
30063;DHT22;16889;67.864;24.990;2022-12-29T21:01:50;-6.40;99.90
30063;DHT22;16889;67.864;24.990;2022-12-29T21:06:36;-6.40;99.90
30063;DHT22;16889;67.864;24.990;2022-12-29T21:11:22;-6.40;99.90
30063;DHT22;16889;67.864;24.990;2022-12-29T21:16:11;-6.30;99.90
30063;DHT22;16889;67.864;24.990;2022-12-29T21:21:06;-6.40;99.90
30063;DHT22;16889;67.864;24.990;2022-12-29T21:25:53;-6.50;99.90
30063;DHT22;16889;67.864;24.990;2022-12-29T21:30:40;-6.60;99.90
30063;DHT22;16889;67.864;24.990;2022-12-29T21:35:26;-6.70;99.90
30063;DHT22;16889;67.864;24.990;2022-12-29T21:40:12;-6.90;99.90
30063;DHT22;16889;67.864;24.990;2022-12-29T21:44:58;-6.90;99.90
30063;DHT22;16889;67.864;24.990;2022-12-29T21:50:03;-6.90;99.90
30063;DHT22;16889;67.864;24.990;2022-12-29T21:54:49;-6.90;99.90
30063;DHT22;16889;67.864;24.990;2022-12-29T21:59:48;-6.80;99.90
30063;DHT22;16889;67.864;24.990;2022-12-29T22:04:52;-6.80;99.90
30063;DHT22;16889;67.864;24.990;2022-12-29T22:09:57;-6.70;99.90
30063;DHT22;16889;67.864;24.990;2022-12-29T22:15:01;-6.90;99.90
30063;DHT22;16889;67.864;24.990;2022-12-29T22:19:47;-7.00;99.90
30063;DHT22;16889;67.864;24.990;2022-12-29T22:24:33;-7.00;99.90
30063;DHT22;16889;67.864;24.990;2022-12-29T22:29:19;-7.10;99.90
30063;DHT22;16889;67.864;24.990;2022-12-29T22:34:05;-7.20;99.90
30063;DHT22;16889;67.864;24.990;2022-12-29T22:38:51;-7.30;99.90
30063;DHT22;16889;67.864;24.990;2022-12-29T22:43:37;-7.40;99.90
30063;DHT22;16889;67.864;24.990;2022-12-29T22:48:23;-7.50;99.90
30063;DHT22;16889;67.864;24.990;2022-12-29T22:53:09;-7.50;99.90
30063;DHT22;16889;67.864;24.990;2022-12-29T22:57:55;-7.50;99.90
30063;DHT22;16889;67.864;24.990;2022-12-29T23:02:41;-7.50;99.90
30063;DHT22;16889;67.864;24.990;2022-12-29T23:07:26;-7.50;99.90
30063;DHT22;16889;67.864;24.990;2022-12-29T23:12:12;-7.50;99.90
30063;DHT22;16889;67.864;24.990;2022-12-29T23:16:58;-7.50;99.90
30063;DHT22;16889;67.864;24.990;2022-12-29T23:21:44;-7.60;99.90
30063;DHT22;16889;67.864;24.990;2022-12-29T23:26:35;-7.70;99.90
30063;DHT22;16889;67.864;24.990;2022-12-29T23:31:22;-7.70;99.90
30063;DHT22;16889;67.864;24.990;2022-12-29T23:36:09;-7.80;99.90
30063;DHT22;16889;67.864;24.990;2022-12-29T23:40:55;-7.80;99.90
30063;DHT22;16889;67.864;24.990;2022-12-29T23:45:41;-7.80;99.90
30063;DHT22;16889;67.864;24.990;2022-12-29T23:50:27;-8.00;99.90
30063;DHT22;16889;67.864;24.990;2022-12-29T23:55:13;-8.00;99.90
30063;DHT22;16889;67.864;24.990;2022-12-29T23:59:59;-8.00;99.90
